sensor_id;sensor_type;location;lat;lon;timestamp;P1;durP1;ratioP1;P2;durP2;ratioP2
46363;SDS011;32071;49.036;9.344;2023-02-28T00:00:06;5.13;;;3.80;;
46363;SDS011;32071;49.036;9.344;2023-02-28T00:02:35;5.33;;;3.70;;
46363;SDS011;32071;49.036;9.344;2023-02-28T00:05:05;6.27;;;3.97;;
46363;SDS011;32071;49.036;9.344;2023-02-28T00:07:32;5.83;;;4.20;;
46363;SDS011;32071;49.036;9.344;2023-02-28T00:09:58;6.80;;;4.30;;
46363;SDS011;32071;49.036;9.344;2023-02-28T00:12:23;7.33;;;3.90;;
46363;SDS011;32071;49.036;9.344;2023-02-28T00:14:49;6.13;;;4.30;;
46363;SDS011;32071;49.036;9.344;2023-02-28T00:17:15;6.40;;;3.87;;
46363;SDS011;32071;49.036;9.344;2023-02-28T00:19:42;9.33;;;4.60;;
46363;SDS011;32071;49.036;9.344;2023-02-28T00:22:08;7.87;;;4.30;;
46363;SDS011;32071;49.036;9.344;2023-02-28T00:24:34;5.50;;;3.77;;
46363;SDS011;32071;49.036;9.344;2023-02-28T00:27:00;6.23;;;3.87;;
46363;SDS011;32071;49.036;9.344;2023-02-28T00:29:25;6.70;;;4.73;;
46363;SDS011;32071;49.036;9.344;2023-02-28T00:31:51;6.03;;;4.13;;
46363;SDS011;32071;49.036;9.344;2023-02-28T00:34:16;7.00;;;4.00;;
46363;SDS011;32071;49.036;9.344;2023-02-28T00:36:42;7.43;;;4.70;;
46363;SDS011;32071;49.036;9.344;2023-02-28T00:39:10;6.93;;;4.50;;
46363;SDS011;32071;49.036;9.344;2023-02-28T00:41:39;7.93;;;3.93;;
46363;SDS011;32071;49.036;9.344;2023-02-28T00:44:04;8.53;;;4.40;;
46363;SDS011;32071;49.036;9.344;2023-02-28T00:46:30;5.73;;;3.83;;
46363;SDS011;32071;49.036;9.344;2023-02-28T00:48:55;8.53;;;4.43;;
46363;SDS011;32071;49.036;9.344;2023-02-28T00:51:21;7.90;;;4.63;;
46363;SDS011;32071;49.036;9.344;2023-02-28T00:53:46;6.87;;;4.10;;
46363;SDS011;32071;49.036;9.344;2023-02-28T00:56:12;5.03;;;3.57;;
46363;SDS011;32071;49.036;9.344;2023-02-28T00:58:38;7.20;;;3.97;;
46363;SDS011;32071;49.036;9.344;2023-02-28T01:01:04;4.63;;;3.73;;
46363;SDS011;32071;49.036;9.344;2023-02-28T01:03:30;8.20;;;4.50;;
46363;SDS011;32071;49.036;9.344;2023-02-28T01:05:55;9.53;;;4.73;;
46363;SDS011;32071;49.036;9.344;2023-02-28T01:08:21;4.33;;;3.53;;
46363;SDS011;32071;49.036;9.344;2023-02-28T01:10:47;6.63;;;4.40;;
46363;SDS011;32071;49.036;9.344;2023-02-28T01:13:13;9.93;;;5.03;;
46363;SDS011;32071;49.036;9.344;2023-02-28T01:15:40;6.90;;;4.40;;
46363;SDS011;32071;49.036;9.344;2023-02-28T01:18:14;7.43;;;4.33;;
46363;SDS011;32071;49.036;9.344;2023-02-28T01:20:39;7.40;;;4.20;;
46363;SDS011;32071;49.036;9.344;2023-02-28T01:23:05;8.60;;;5.40;;
46363;SDS011;32071;49.036;9.344;2023-02-28T01:25:30;7.47;;;4.83;;
46363;SDS011;32071;49.036;9.344;2023-02-28T01:27:58;7.73;;;4.07;;
46363;SDS011;32071;49.036;9.344;2023-02-28T01:30:24;7.60;;;4.70;;
46363;SDS011;32071;49.036;9.344;2023-02-28T01:32:49;8.80;;;4.63;;
46363;SDS011;32071;49.036;9.344;2023-02-28T01:35:18;9.07;;;4.83;;
46363;SDS011;32071;49.036;9.344;2023-02-28T01:37:43;6.63;;;4.70;;
46363;SDS011;32071;49.036;9.344;2023-02-28T01:40:09;6.40;;;4.13;;
46363;SDS011;32071;49.036;9.344;2023-02-28T01:42:35;9.30;;;5.27;;
46363;SDS011;32071;49.036;9.344;2023-02-28T01:45:03;8.90;;;4.43;;
46363;SDS011;32071;49.036;9.344;2023-02-28T01:47:34;8.47;;;4.30;;
46363;SDS011;32071;49.036;9.344;2023-02-28T01:50:04;9.13;;;5.17;;
46363;SDS011;32071;49.036;9.344;2023-02-28T01:52:34;6.13;;;3.93;;
46363;SDS011;32071;49.036;9.344;2023-02-28T01:55:00;9.70;;;4.93;;
46363;SDS011;32071;49.036;9.344;2023-02-28T01:57:30;6.90;;;4.77;;
46363;SDS011;32071;49.036;9.344;2023-02-28T02:00:12;11.77;;;4.90;;
46363;SDS011;32071;49.036;9.344;2023-02-28T02:02:43;8.27;;;4.93;;
46363;SDS011;32071;49.036;9.344;2023-02-28T02:05:14;7.60;;;4.30;;
46363;SDS011;32071;49.036;9.344;2023-02-28T02:07:42;8.87;;;5.03;;
46363;SDS011;32071;49.036;9.344;2023-02-28T02:15:13;7.30;;;4.87;;
46363;SDS011;32071;49.036;9.344;2023-02-28T02:17:49;9.40;;;4.67;;
46363;SDS011;32071;49.036;9.344;2023-02-28T02:23:42;9.10;;;5.23;;
46363;SDS011;32071;49.036;9.344;2023-02-28T02:29:39;11.03;;;4.90;;
46363;SDS011;32071;49.036;9.344;2023-02-28T02:37:54;8.10;;;5.23;;
46363;SDS011;32071;49.036;9.344;2023-02-28T02:40:25;9.87;;;5.83;;
46363;SDS011;32071;49.036;9.344;2023-02-28T02:46:12;8.83;;;5.20;;
46363;SDS011;32071;49.036;9.344;2023-02-28T02:48:37;8.87;;;5.43;;
46363;SDS011;32071;49.036;9.344;2023-02-28T02:51:10;8.00;;;5.40;;
46363;SDS011;32071;49.036;9.344;2023-02-28T02:53:44;13.23;;;4.93;;
46363;SDS011;32071;49.036;9.344;2023-02-28T02:56:17;11.10;;;6.63;;
46363;SDS011;32071;49.036;9.344;2023-02-28T02:58:46;16.00;;;5.60;;
46363;SDS011;32071;49.036;9.344;2023-02-28T03:01:15;8.77;;;5.10;;
46363;SDS011;32071;49.036;9.344;2023-02-28T03:03:54;9.47;;;5.90;;
46363;SDS011;32071;49.036;9.344;2023-02-28T03:06:22;13.80;;;5.70;;
46363;SDS011;32071;49.036;9.344;2023-02-28T03:08:48;10.20;;;5.17;;
46363;SDS011;32071;49.036;9.344;2023-02-28T03:11:14;8.43;;;5.60;;
46363;SDS011;32071;49.036;9.344;2023-02-28T03:19:52;9.20;;;5.33;;
46363;SDS011;32071;49.036;9.344;2023-02-28T03:30:21;9.07;;;5.03;;
46363;SDS011;32071;49.036;9.344;2023-02-28T03:32:53;9.73;;;5.30;;
46363;SDS011;32071;49.036;9.344;2023-02-28T03:35:56;7.17;;;5.10;;
46363;SDS011;32071;49.036;9.344;2023-02-28T03:41:00;9.20;;;5.30;;
46363;SDS011;32071;49.036;9.344;2023-02-28T03:44:02;8.93;;;5.47;;
46363;SDS011;32071;49.036;9.344;2023-02-28T03:46:53;7.97;;;5.23;;
46363;SDS011;32071;49.036;9.344;2023-02-28T03:49:30;9.23;;;5.20;;
46363;SDS011;32071;49.036;9.344;2023-02-28T03:51:59;7.23;;;4.97;;
46363;SDS011;32071;49.036;9.344;2023-02-28T03:54:29;11.80;;;5.20;;
46363;SDS011;32071;49.036;9.344;2023-02-28T03:59:58;10.60;;;5.37;;
46363;SDS011;32071;49.036;9.344;2023-02-28T04:02:29;8.77;;;5.20;;
46363;SDS011;32071;49.036;9.344;2023-02-28T04:04:55;10.20;;;5.03;;
46363;SDS011;32071;49.036;9.344;2023-02-28T04:07:20;11.43;;;6.20;;
46363;SDS011;32071;49.036;9.344;2023-02-28T04:09:46;9.67;;;5.73;;
46363;SDS011;32071;49.036;9.344;2023-02-28T04:12:12;9.93;;;5.60;;
46363;SDS011;32071;49.036;9.344;2023-02-28T04:14:37;8.50;;;5.90;;
46363;SDS011;32071;49.036;9.344;2023-02-28T04:17:03;10.60;;;5.63;;
46363;SDS011;32071;49.036;9.344;2023-02-28T04:19:28;9.27;;;5.90;;
46363;SDS011;32071;49.036;9.344;2023-02-28T04:21:54;8.50;;;5.50;;
46363;SDS011;32071;49.036;9.344;2023-02-28T04:24:21;8.40;;;5.20;;
46363;SDS011;32071;49.036;9.344;2023-02-28T04:26:49;9.40;;;4.73;;
46363;SDS011;32071;49.036;9.344;2023-02-28T04:29:21;12.00;;;6.03;;
46363;SDS011;32071;49.036;9.344;2023-02-28T04:31:51;8.30;;;5.43;;
46363;SDS011;32071;49.036;9.344;2023-02-28T04:34:18;9.50;;;5.97;;
46363;SDS011;32071;49.036;9.344;2023-02-28T04:36:44;9.50;;;5.63;;
46363;SDS011;32071;49.036;9.344;2023-02-28T04:39:10;8.10;;;5.77;;
46363;SDS011;32071;49.036;9.344;2023-02-28T04:41:36;9.83;;;5.33;;
46363;SDS011;32071;49.036;9.344;2023-02-28T04:44:02;10.07;;;6.20;;
46363;SDS011;32071;49.036;9.344;2023-02-28T04:46:28;10.40;;;6.07;;
46363;SDS011;32071;49.036;9.344;2023-02-28T04:48:55;10.90;;;5.87;;
46363;SDS011;32071;49.036;9.344;2023-02-28T04:51:21;10.67;;;5.70;;
46363;SDS011;32071;49.036;9.344;2023-02-28T04:53:46;10.57;;;5.70;;
46363;SDS011;32071;49.036;9.344;2023-02-28T04:56:13;9.23;;;4.90;;
46363;SDS011;32071;49.036;9.344;2023-02-28T04:58:40;12.60;;;5.73;;
46363;SDS011;32071;49.036;9.344;2023-02-28T05:03:42;11.10;;;6.57;;
46363;SDS011;32071;49.036;9.344;2023-02-28T05:06:08;8.73;;;5.27;;
46363;SDS011;32071;49.036;9.344;2023-02-28T05:08:35;7.47;;;4.63;;
46363;SDS011;32071;49.036;9.344;2023-02-28T05:11:01;11.97;;;6.20;;
46363;SDS011;32071;49.036;9.344;2023-02-28T05:13:27;13.60;;;6.80;;
46363;SDS011;32071;49.036;9.344;2023-02-28T05:15:53;13.67;;;7.17;;
46363;SDS011;32071;49.036;9.344;2023-02-28T05:18:19;9.10;;;5.83;;
46363;SDS011;32071;49.036;9.344;2023-02-28T05:20:45;11.57;;;5.90;;
46363;SDS011;32071;49.036;9.344;2023-02-28T05:23:11;9.43;;;5.70;;
46363;SDS011;32071;49.036;9.344;2023-02-28T05:25:38;9.50;;;5.70;;
46363;SDS011;32071;49.036;9.344;2023-02-28T05:28:04;9.50;;;6.30;;
46363;SDS011;32071;49.036;9.344;2023-02-28T05:30:30;13.20;;;7.03;;
46363;SDS011;32071;49.036;9.344;2023-02-28T05:32:56;11.13;;;6.30;;
46363;SDS011;32071;49.036;9.344;2023-02-28T05:35:22;9.63;;;6.10;;
46363;SDS011;32071;49.036;9.344;2023-02-28T05:37:50;10.90;;;5.50;;
46363;SDS011;32071;49.036;9.344;2023-02-28T05:40:16;12.20;;;6.33;;
46363;SDS011;32071;49.036;9.344;2023-02-28T05:42:42;11.27;;;6.13;;
46363;SDS011;32071;49.036;9.344;2023-02-28T05:45:08;10.23;;;4.90;;
46363;SDS011;32071;49.036;9.344;2023-02-28T05:47:34;9.73;;;5.70;;
46363;SDS011;32071;49.036;9.344;2023-02-28T05:50:00;11.03;;;6.00;;
46363;SDS011;32071;49.036;9.344;2023-02-28T05:52:26;8.50;;;5.10;;
46363;SDS011;32071;49.036;9.344;2023-02-28T05:54:52;11.60;;;6.43;;
46363;SDS011;32071;49.036;9.344;2023-02-28T05:57:18;12.30;;;6.20;;
46363;SDS011;32071;49.036;9.344;2023-02-28T05:59:43;10.87;;;6.13;;
46363;SDS011;32071;49.036;9.344;2023-02-28T06:02:13;13.80;;;6.03;;
46363;SDS011;32071;49.036;9.344;2023-02-28T06:04:39;11.07;;;6.23;;
46363;SDS011;32071;49.036;9.344;2023-02-28T06:07:06;14.83;;;7.93;;
46363;SDS011;32071;49.036;9.344;2023-02-28T06:09:33;8.77;;;5.27;;
46363;SDS011;32071;49.036;9.344;2023-02-28T06:11:59;12.27;;;6.43;;
46363;SDS011;32071;49.036;9.344;2023-02-28T06:14:25;10.10;;;5.80;;
46363;SDS011;32071;49.036;9.344;2023-02-28T06:16:51;13.27;;;6.17;;
46363;SDS011;32071;49.036;9.344;2023-02-28T06:19:17;9.43;;;5.93;;
46363;SDS011;32071;49.036;9.344;2023-02-28T06:21:42;18.40;;;6.80;;
46363;SDS011;32071;49.036;9.344;2023-02-28T06:24:08;9.63;;;6.53;;
46363;SDS011;32071;49.036;9.344;2023-02-28T06:26:34;10.97;;;6.37;;
46363;SDS011;32071;49.036;9.344;2023-02-28T06:29:00;10.40;;;5.90;;
46363;SDS011;32071;49.036;9.344;2023-02-28T06:31:26;14.00;;;7.00;;
46363;SDS011;32071;49.036;9.344;2023-02-28T06:33:53;14.13;;;6.87;;
46363;SDS011;32071;49.036;9.344;2023-02-28T06:36:19;13.80;;;6.77;;
46363;SDS011;32071;49.036;9.344;2023-02-28T06:38:45;11.77;;;6.13;;
46363;SDS011;32071;49.036;9.344;2023-02-28T06:41:16;12.57;;;5.67;;
46363;SDS011;32071;49.036;9.344;2023-02-28T06:43:42;11.00;;;6.67;;
46363;SDS011;32071;49.036;9.344;2023-02-28T06:46:08;15.33;;;6.87;;
46363;SDS011;32071;49.036;9.344;2023-02-28T06:48:38;8.50;;;6.00;;
46363;SDS011;32071;49.036;9.344;2023-02-28T06:51:05;12.07;;;6.47;;
46363;SDS011;32071;49.036;9.344;2023-02-28T06:53:39;8.83;;;5.80;;
46363;SDS011;32071;49.036;9.344;2023-02-28T06:56:10;12.00;;;7.17;;
46363;SDS011;32071;49.036;9.344;2023-02-28T06:58:37;14.83;;;8.03;;
46363;SDS011;32071;49.036;9.344;2023-02-28T07:01:04;10.70;;;6.47;;
46363;SDS011;32071;49.036;9.344;2023-02-28T07:03:30;13.77;;;7.60;;
46363;SDS011;32071;49.036;9.344;2023-02-28T07:05:55;12.73;;;7.10;;
46363;SDS011;32071;49.036;9.344;2023-02-28T07:08:22;11.20;;;6.60;;
46363;SDS011;32071;49.036;9.344;2023-02-28T07:10:51;14.00;;;7.80;;
46363;SDS011;32071;49.036;9.344;2023-02-28T07:13:20;12.00;;;7.30;;
46363;SDS011;32071;49.036;9.344;2023-02-28T07:15:53;14.70;;;7.10;;
46363;SDS011;32071;49.036;9.344;2023-02-28T07:18:19;12.73;;;7.87;;
46363;SDS011;32071;49.036;9.344;2023-02-28T07:20:45;12.30;;;7.17;;
46363;SDS011;32071;49.036;9.344;2023-02-28T07:23:10;14.90;;;7.17;;
46363;SDS011;32071;49.036;9.344;2023-02-28T07:25:36;13.73;;;7.90;;
46363;SDS011;32071;49.036;9.344;2023-02-28T07:28:01;12.10;;;7.37;;
46363;SDS011;32071;49.036;9.344;2023-02-28T07:30:27;15.67;;;7.93;;
46363;SDS011;32071;49.036;9.344;2023-02-28T07:32:53;14.70;;;6.93;;
46363;SDS011;32071;49.036;9.344;2023-02-28T07:35:20;11.10;;;7.20;;
46363;SDS011;32071;49.036;9.344;2023-02-28T07:37:46;15.30;;;8.07;;
46363;SDS011;32071;49.036;9.344;2023-02-28T07:40:12;13.90;;;7.73;;
46363;SDS011;32071;49.036;9.344;2023-02-28T07:42:38;12.17;;;7.90;;
46363;SDS011;32071;49.036;9.344;2023-02-28T07:45:05;13.90;;;7.83;;
46363;SDS011;32071;49.036;9.344;2023-02-28T07:47:31;14.23;;;7.77;;
46363;SDS011;32071;49.036;9.344;2023-02-28T07:49:57;16.60;;;8.60;;
46363;SDS011;32071;49.036;9.344;2023-02-28T07:52:23;14.30;;;7.37;;
46363;SDS011;32071;49.036;9.344;2023-02-28T07:54:49;14.63;;;8.17;;
46363;SDS011;32071;49.036;9.344;2023-02-28T07:57:15;18.90;;;8.93;;
46363;SDS011;32071;49.036;9.344;2023-02-28T07:59:41;14.20;;;8.73;;
46363;SDS011;32071;49.036;9.344;2023-02-28T08:02:09;16.13;;;7.97;;
46363;SDS011;32071;49.036;9.344;2023-02-28T08:04:40;14.87;;;8.30;;
46363;SDS011;32071;49.036;9.344;2023-02-28T08:07:05;14.53;;;8.00;;
46363;SDS011;32071;49.036;9.344;2023-02-28T08:09:31;10.47;;;6.90;;
46363;SDS011;32071;49.036;9.344;2023-02-28T08:11:57;19.30;;;8.70;;
46363;SDS011;32071;49.036;9.344;2023-02-28T08:14:23;16.53;;;9.47;;
46363;SDS011;32071;49.036;9.344;2023-02-28T08:16:48;19.47;;;8.80;;
46363;SDS011;32071;49.036;9.344;2023-02-28T08:19:14;13.00;;;8.43;;
46363;SDS011;32071;49.036;9.344;2023-02-28T08:21:39;20.30;;;8.80;;
46363;SDS011;32071;49.036;9.344;2023-02-28T08:24:05;15.40;;;8.60;;
46363;SDS011;32071;49.036;9.344;2023-02-28T08:26:31;18.33;;;9.53;;
46363;SDS011;32071;49.036;9.344;2023-02-28T08:28:57;12.57;;;7.73;;
46363;SDS011;32071;49.036;9.344;2023-02-28T08:31:23;14.23;;;7.70;;
46363;SDS011;32071;49.036;9.344;2023-02-28T08:33:48;18.43;;;7.97;;
46363;SDS011;32071;49.036;9.344;2023-02-28T08:36:15;12.30;;;8.13;;
46363;SDS011;32071;49.036;9.344;2023-02-28T08:38:41;16.60;;;8.43;;
46363;SDS011;32071;49.036;9.344;2023-02-28T08:41:08;13.60;;;8.00;;
46363;SDS011;32071;49.036;9.344;2023-02-28T08:43:36;20.10;;;9.00;;
46363;SDS011;32071;49.036;9.344;2023-02-28T08:46:02;16.40;;;9.17;;
46363;SDS011;32071;49.036;9.344;2023-02-28T08:48:29;16.70;;;10.20;;
46363;SDS011;32071;49.036;9.344;2023-02-28T08:51:04;18.17;;;10.30;;
46363;SDS011;32071;49.036;9.344;2023-02-28T08:53:31;16.97;;;8.57;;
46363;SDS011;32071;49.036;9.344;2023-02-28T08:56:01;14.80;;;8.60;;
46363;SDS011;32071;49.036;9.344;2023-02-28T08:58:29;16.43;;;8.83;;
46363;SDS011;32071;49.036;9.344;2023-02-28T09:00:55;15.37;;;8.90;;
46363;SDS011;32071;49.036;9.344;2023-02-28T09:03:21;18.30;;;9.27;;
46363;SDS011;32071;49.036;9.344;2023-02-28T09:05:54;13.90;;;8.70;;
46363;SDS011;32071;49.036;9.344;2023-02-28T09:08:20;18.50;;;8.77;;
46363;SDS011;32071;49.036;9.344;2023-02-28T09:10:46;14.97;;;8.40;;
46363;SDS011;32071;49.036;9.344;2023-02-28T09:13:12;19.13;;;9.20;;
46363;SDS011;32071;49.036;9.344;2023-02-28T09:15:38;16.13;;;9.20;;
46363;SDS011;32071;49.036;9.344;2023-02-28T09:18:03;14.13;;;8.80;;
46363;SDS011;32071;49.036;9.344;2023-02-28T09:20:29;16.10;;;8.40;;
46363;SDS011;32071;49.036;9.344;2023-02-28T09:22:55;16.37;;;8.57;;
46363;SDS011;32071;49.036;9.344;2023-02-28T09:25:20;16.43;;;9.30;;
46363;SDS011;32071;49.036;9.344;2023-02-28T09:27:46;14.83;;;8.97;;
46363;SDS011;32071;49.036;9.344;2023-02-28T09:30:12;17.20;;;10.10;;
46363;SDS011;32071;49.036;9.344;2023-02-28T09:32:38;15.80;;;9.10;;
46363;SDS011;32071;49.036;9.344;2023-02-28T09:35:04;15.73;;;8.50;;
46363;SDS011;32071;49.036;9.344;2023-02-28T09:37:30;14.60;;;8.60;;
46363;SDS011;32071;49.036;9.344;2023-02-28T09:39:56;14.57;;;8.60;;
46363;SDS011;32071;49.036;9.344;2023-02-28T09:42:23;12.73;;;7.33;;
46363;SDS011;32071;49.036;9.344;2023-02-28T09:44:55;14.70;;;8.70;;
46363;SDS011;32071;49.036;9.344;2023-02-28T09:50:17;17.50;;;8.80;;
46363;SDS011;32071;49.036;9.344;2023-02-28T09:52:48;13.50;;;8.70;;
46363;SDS011;32071;49.036;9.344;2023-02-28T09:57:47;15.03;;;8.90;;
46363;SDS011;32071;49.036;9.344;2023-02-28T10:00:19;14.97;;;8.83;;
46363;SDS011;32071;49.036;9.344;2023-02-28T10:05:20;13.73;;;9.27;;
46363;SDS011;32071;49.036;9.344;2023-02-28T10:13:13;16.20;;;8.60;;
46363;SDS011;32071;49.036;9.344;2023-02-28T10:15:47;14.20;;;8.47;;
46363;SDS011;32071;49.036;9.344;2023-02-28T10:18:19;17.23;;;8.50;;
46363;SDS011;32071;49.036;9.344;2023-02-28T10:20:49;20.83;;;9.80;;
46363;SDS011;32071;49.036;9.344;2023-02-28T10:23:21;17.13;;;9.63;;
46363;SDS011;32071;49.036;9.344;2023-02-28T10:25:53;17.33;;;10.13;;
46363;SDS011;32071;49.036;9.344;2023-02-28T10:28:24;14.17;;;8.20;;
46363;SDS011;32071;49.036;9.344;2023-02-28T10:30:52;13.60;;;8.43;;
46363;SDS011;32071;49.036;9.344;2023-02-28T10:33:27;15.20;;;9.47;;
46363;SDS011;32071;49.036;9.344;2023-02-28T10:35:59;16.90;;;8.50;;
46363;SDS011;32071;49.036;9.344;2023-02-28T10:38:26;13.60;;;8.57;;
46363;SDS011;32071;49.036;9.344;2023-02-28T10:41:03;16.47;;;9.50;;
46363;SDS011;32071;49.036;9.344;2023-02-28T10:43:34;14.93;;;8.90;;
46363;SDS011;32071;49.036;9.344;2023-02-28T10:46:02;16.70;;;9.47;;
46363;SDS011;32071;49.036;9.344;2023-02-28T10:48:38;18.47;;;9.03;;
46363;SDS011;32071;49.036;9.344;2023-02-28T10:51:06;18.63;;;9.50;;
46363;SDS011;32071;49.036;9.344;2023-02-28T10:53:51;14.90;;;9.13;;
46363;SDS011;32071;49.036;9.344;2023-02-28T10:56:23;18.47;;;9.30;;
46363;SDS011;32071;49.036;9.344;2023-02-28T11:01:44;14.63;;;9.00;;
46363;SDS011;32071;49.036;9.344;2023-02-28T11:04:31;16.67;;;8.80;;
46363;SDS011;32071;49.036;9.344;2023-02-28T11:07:06;16.40;;;9.90;;
46363;SDS011;32071;49.036;9.344;2023-02-28T11:09:44;17.07;;;9.40;;
46363;SDS011;32071;49.036;9.344;2023-02-28T11:12:31;15.80;;;9.00;;
46363;SDS011;32071;49.036;9.344;2023-02-28T11:15:18;15.93;;;9.00;;
46363;SDS011;32071;49.036;9.344;2023-02-28T11:17:44;15.70;;;9.70;;
46363;SDS011;32071;49.036;9.344;2023-02-28T11:20:24;18.50;;;10.00;;
46363;SDS011;32071;49.036;9.344;2023-02-28T11:22:51;15.70;;;9.60;;
46363;SDS011;32071;49.036;9.344;2023-02-28T11:25:23;19.27;;;9.33;;
46363;SDS011;32071;49.036;9.344;2023-02-28T11:28:02;17.70;;;10.83;;
46363;SDS011;32071;49.036;9.344;2023-02-28T11:30:38;20.50;;;9.10;;
46363;SDS011;32071;49.036;9.344;2023-02-28T11:33:22;17.07;;;9.77;;
46363;SDS011;32071;49.036;9.344;2023-02-28T11:35:52;16.93;;;9.23;;
46363;SDS011;32071;49.036;9.344;2023-02-28T11:38:21;13.30;;;9.10;;
46363;SDS011;32071;49.036;9.344;2023-02-28T11:46:04;15.60;;;9.60;;
46363;SDS011;32071;49.036;9.344;2023-02-28T11:52:10;15.47;;;9.23;;
46363;SDS011;32071;49.036;9.344;2023-02-28T11:54:23;19.53;;;10.60;;
46363;SDS011;32071;49.036;9.344;2023-02-28T12:09:20;14.60;;;9.47;;
46363;SDS011;32071;49.036;9.344;2023-02-28T12:11:52;15.00;;;9.50;;
46363;SDS011;32071;49.036;9.344;2023-02-28T12:20:32;15.70;;;10.03;;
46363;SDS011;32071;49.036;9.344;2023-02-28T12:23:10;16.73;;;10.30;;
46363;SDS011;32071;49.036;9.344;2023-02-28T12:25:46;14.90;;;9.50;;
46363;SDS011;32071;49.036;9.344;2023-02-28T12:28:16;16.87;;;10.53;;
46363;SDS011;32071;49.036;9.344;2023-02-28T12:30:49;15.00;;;9.70;;
46363;SDS011;32071;49.036;9.344;2023-02-28T12:33:27;18.60;;;8.50;;
46363;SDS011;32071;49.036;9.344;2023-02-28T12:35:59;14.33;;;9.23;;
46363;SDS011;32071;49.036;9.344;2023-02-28T12:38:34;18.77;;;9.90;;
46363;SDS011;32071;49.036;9.344;2023-02-28T12:41:05;15.10;;;9.90;;
46363;SDS011;32071;49.036;9.344;2023-02-28T12:43:43;16.70;;;9.50;;
46363;SDS011;32071;49.036;9.344;2023-02-28T12:48:57;17.23;;;10.30;;
46363;SDS011;32071;49.036;9.344;2023-02-28T12:51:29;16.07;;;10.20;;
46363;SDS011;32071;49.036;9.344;2023-02-28T12:54:01;15.80;;;10.10;;
46363;SDS011;32071;49.036;9.344;2023-02-28T12:56:48;17.23;;;10.57;;
46363;SDS011;32071;49.036;9.344;2023-02-28T12:59:38;17.40;;;9.83;;
46363;SDS011;32071;49.036;9.344;2023-02-28T13:05:28;16.37;;;9.53;;
46363;SDS011;32071;49.036;9.344;2023-02-28T13:08:20;19.90;;;9.73;;
46363;SDS011;32071;49.036;9.344;2023-02-28T13:10:59;17.20;;;9.70;;
46363;SDS011;32071;49.036;9.344;2023-02-28T13:13:26;16.53;;;10.33;;
46363;SDS011;32071;49.036;9.344;2023-02-28T13:16:09;15.40;;;10.23;;
46363;SDS011;32071;49.036;9.344;2023-02-28T13:18:36;16.10;;;10.00;;
46363;SDS011;32071;49.036;9.344;2023-02-28T13:21:22;17.53;;;9.97;;
46363;SDS011;32071;49.036;9.344;2023-02-28T13:26:20;15.60;;;10.00;;
46363;SDS011;32071;49.036;9.344;2023-02-28T13:31:24;15.70;;;9.80;;
46363;SDS011;32071;49.036;9.344;2023-02-28T13:38:56;18.00;;;11.30;;
46363;SDS011;32071;49.036;9.344;2023-02-28T13:43:59;15.00;;;10.53;;
46363;SDS011;32071;49.036;9.344;2023-02-28T13:46:30;15.23;;;10.50;;
46363;SDS011;32071;49.036;9.344;2023-02-28T13:49:11;14.73;;;9.97;;
46363;SDS011;32071;49.036;9.344;2023-02-28T13:51:46;18.37;;;11.23;;
46363;SDS011;32071;49.036;9.344;2023-02-28T13:54:16;19.17;;;10.77;;
46363;SDS011;32071;49.036;9.344;2023-02-28T14:00:02;20.73;;;11.50;;
46363;SDS011;32071;49.036;9.344;2023-02-28T14:05:35;16.77;;;11.03;;
46363;SDS011;32071;49.036;9.344;2023-02-28T14:08:07;17.80;;;10.70;;
46363;SDS011;32071;49.036;9.344;2023-02-28T14:10:46;19.07;;;11.10;;
46363;SDS011;32071;49.036;9.344;2023-02-28T14:16:04;16.57;;;10.63;;
46363;SDS011;32071;49.036;9.344;2023-02-28T14:18:32;18.60;;;10.60;;
46363;SDS011;32071;49.036;9.344;2023-02-28T14:26:53;14.93;;;10.77;;
46363;SDS011;32071;49.036;9.344;2023-02-28T14:29:50;20.73;;;11.80;;
46363;SDS011;32071;49.036;9.344;2023-02-28T14:32:59;20.53;;;11.73;;
46363;SDS011;32071;49.036;9.344;2023-02-28T14:36:00;18.93;;;11.10;;
46363;SDS011;32071;49.036;9.344;2023-02-28T14:39:10;15.77;;;9.90;;
46363;SDS011;32071;49.036;9.344;2023-02-28T14:41:20;23.13;;;11.80;;
46363;SDS011;32071;49.036;9.344;2023-02-28T14:44:00;18.20;;;10.57;;
46363;SDS011;32071;49.036;9.344;2023-02-28T14:46:36;18.73;;;10.83;;
46363;SDS011;32071;49.036;9.344;2023-02-28T14:49:04;20.50;;;11.50;;
46363;SDS011;32071;49.036;9.344;2023-02-28T14:51:32;19.73;;;11.40;;
46363;SDS011;32071;49.036;9.344;2023-02-28T14:53:59;19.43;;;10.57;;
46363;SDS011;32071;49.036;9.344;2023-02-28T14:56:33;20.97;;;11.40;;
46363;SDS011;32071;49.036;9.344;2023-02-28T14:59:02;19.57;;;11.73;;
46363;SDS011;32071;49.036;9.344;2023-02-28T15:01:28;17.80;;;10.40;;
46363;SDS011;32071;49.036;9.344;2023-02-28T15:04:03;18.23;;;11.37;;
46363;SDS011;32071;49.036;9.344;2023-02-28T15:06:30;17.77;;;10.33;;
46363;SDS011;32071;49.036;9.344;2023-02-28T15:09:07;20.37;;;11.93;;
46363;SDS011;32071;49.036;9.344;2023-02-28T15:11:41;18.20;;;11.07;;
46363;SDS011;32071;49.036;9.344;2023-02-28T15:14:14;23.13;;;12.37;;
46363;SDS011;32071;49.036;9.344;2023-02-28T15:16:46;17.67;;;9.63;;
46363;SDS011;32071;49.036;9.344;2023-02-28T15:21:49;20.27;;;11.53;;
46363;SDS011;32071;49.036;9.344;2023-02-28T15:26:58;19.53;;;11.57;;
46363;SDS011;32071;49.036;9.344;2023-02-28T15:29:27;17.13;;;10.40;;
46363;SDS011;32071;49.036;9.344;2023-02-28T15:31:56;14.53;;;9.50;;
46363;SDS011;32071;49.036;9.344;2023-02-28T15:34:41;19.70;;;11.30;;
46363;SDS011;32071;49.036;9.344;2023-02-28T15:40:13;19.63;;;10.33;;
46363;SDS011;32071;49.036;9.344;2023-02-28T15:42:43;16.30;;;10.40;;
46363;SDS011;32071;49.036;9.344;2023-02-28T15:45:36;17.90;;;10.60;;
46363;SDS011;32071;49.036;9.344;2023-02-28T15:50:49;16.77;;;10.03;;
46363;SDS011;32071;49.036;9.344;2023-02-28T15:53:28;14.50;;;10.37;;
46363;SDS011;32071;49.036;9.344;2023-02-28T15:56:39;19.37;;;11.23;;
46363;SDS011;32071;49.036;9.344;2023-02-28T15:58:46;16.63;;;10.50;;
46363;SDS011;32071;49.036;9.344;2023-02-28T16:01:28;15.37;;;10.03;;
46363;SDS011;32071;49.036;9.344;2023-02-28T16:04:00;21.40;;;11.10;;
46363;SDS011;32071;49.036;9.344;2023-02-28T16:06:35;19.10;;;10.67;;
46363;SDS011;32071;49.036;9.344;2023-02-28T16:09:01;18.17;;;10.27;;
46363;SDS011;32071;49.036;9.344;2023-02-28T16:11:28;19.23;;;10.63;;
46363;SDS011;32071;49.036;9.344;2023-02-28T16:13:54;17.87;;;9.83;;
46363;SDS011;32071;49.036;9.344;2023-02-28T16:16:20;18.83;;;10.77;;
46363;SDS011;32071;49.036;9.344;2023-02-28T16:18:47;16.10;;;9.50;;
46363;SDS011;32071;49.036;9.344;2023-02-28T16:21:13;18.37;;;10.77;;
46363;SDS011;32071;49.036;9.344;2023-02-28T16:23:38;19.13;;;11.23;;
46363;SDS011;32071;49.036;9.344;2023-02-28T16:26:04;18.90;;;11.50;;
46363;SDS011;32071;49.036;9.344;2023-02-28T16:28:31;17.50;;;9.33;;
46363;SDS011;32071;49.036;9.344;2023-02-28T16:31:00;15.07;;;9.40;;
46363;SDS011;32071;49.036;9.344;2023-02-28T16:33:30;15.50;;;9.80;;
46363;SDS011;32071;49.036;9.344;2023-02-28T16:35:56;19.43;;;10.90;;
46363;SDS011;32071;49.036;9.344;2023-02-28T16:38:22;16.40;;;9.60;;
46363;SDS011;32071;49.036;9.344;2023-02-28T16:40:49;21.27;;;10.70;;
46363;SDS011;32071;49.036;9.344;2023-02-28T16:43:17;16.70;;;9.30;;
46363;SDS011;32071;49.036;9.344;2023-02-28T16:45:48;17.60;;;9.77;;
46363;SDS011;32071;49.036;9.344;2023-02-28T16:48:14;15.30;;;9.60;;
46363;SDS011;32071;49.036;9.344;2023-02-28T16:50:41;21.73;;;10.00;;
46363;SDS011;32071;49.036;9.344;2023-02-28T16:53:08;17.80;;;10.50;;
46363;SDS011;32071;49.036;9.344;2023-02-28T16:55:34;14.73;;;10.13;;
46363;SDS011;32071;49.036;9.344;2023-02-28T16:58:00;17.17;;;10.43;;
46363;SDS011;32071;49.036;9.344;2023-02-28T17:00:28;15.37;;;9.63;;